createdAt,value
2022-09-12T00:00:55.829Z,96.33
2022-09-12T00:06:09.273Z,96.02
2022-09-12T00:11:01.790Z,96.53
2022-09-12T00:16:01.587Z,96.48
2022-09-12T00:21:01.564Z,95.41
2022-09-12T00:26:01.463Z,95.62
2022-09-12T00:31:01.385Z,95.82
2022-09-12T00:36:01.364Z,96.43
2022-09-12T00:41:01.256Z,95.92
2022-09-12T00:46:01.285Z,96.23
2022-09-12T00:51:01.173Z,95.82
2022-09-12T00:56:01.077Z,95.66
2022-09-12T01:01:01.312Z,96.37
2022-09-12T01:06:00.941Z,96.47
2022-09-12T01:11:00.915Z,96.58
2022-09-12T01:16:00.791Z,96.78
2022-09-12T01:21:00.736Z,96.22
2022-09-12T01:26:00.679Z,96.83
2022-09-12T01:31:00.574Z,96.83
2022-09-12T01:36:00.589Z,96.62
2022-09-12T01:41:00.455Z,98.05
2022-09-12T01:46:00.415Z,97.13
2022-09-12T01:51:00.315Z,97.03
2022-09-12T01:56:00.286Z,96.97
2022-09-12T02:01:00.272Z,97.07
2022-09-12T02:06:00.172Z,97.99
2022-09-12T02:11:00.059Z,97.58
2022-09-12T02:16:00.009Z,96.36
2022-09-12T02:20:59.963Z,96.97
2022-09-12T02:25:59.911Z,97.17
2022-09-12T02:30:59.827Z,97.22
2022-09-12T02:35:59.744Z,97.12
2022-09-12T02:40:59.697Z,97.02
2022-09-12T02:45:59.688Z,97.93
2022-09-12T02:50:59.567Z,97.02
2022-09-12T02:55:59.527Z,97.63
2022-09-12T03:00:59.464Z,97.12
2022-09-12T03:05:59.423Z,97.47
2022-09-12T03:10:59.303Z,97.47
2022-09-12T03:15:59.164Z,97.78
2022-09-12T03:20:59.162Z,97.57
2022-09-12T03:25:59.088Z,97.47
2022-09-12T03:30:59.029Z,97.53
2022-09-12T03:35:58.927Z,97.57
2022-09-12T03:40:58.869Z,96.86
2022-09-12T03:45:58.855Z,97.78
2022-09-12T03:50:58.749Z,96.76
2022-09-12T03:55:58.652Z,96.96
2022-09-12T04:00:58.649Z,97.72
2022-09-12T04:05:58.544Z,98.23
2022-09-12T04:10:58.457Z,98.90
2022-09-12T04:16:07.447Z,99.10
2022-09-12T04:21:00.370Z,99.36
2022-09-12T04:26:00.457Z,98.44
2022-09-12T04:31:00.258Z,98.39
2022-09-12T04:36:00.169Z,98.70
2022-09-12T04:41:00.096Z,98.60
2022-09-12T04:46:01.092Z,98.70
2022-09-12T04:50:59.943Z,98.50
2022-09-12T04:56:00.044Z,99.01
2022-09-12T05:01:01.708Z,99.31
2022-09-12T05:05:59.757Z,99.52
2022-09-12T05:10:59.885Z,99.62
2022-09-12T05:16:00.680Z,99.62
2022-09-12T05:20:59.553Z,99.99
2022-09-12T05:26:00.415Z,99.99
2022-09-12T05:30:59.497Z,99.99
2022-09-12T05:35:59.349Z,99.99
2022-09-12T05:40:59.296Z,99.99
2022-09-12T05:45:59.223Z,99.99
2022-09-12T05:51:00.104Z,99.99
2022-09-12T05:56:00.037Z,99.99
2022-09-12T06:01:00.028Z,99.57
2022-09-12T06:05:59.011Z,98.75
2022-09-12T06:11:02.155Z,99.06
2022-09-12T06:15:58.875Z,98.81
2022-09-12T06:20:58.750Z,98.91
2022-09-12T06:25:59.648Z,97.96
2022-09-12T06:30:58.671Z,96.53
2022-09-12T06:35:58.563Z,97.69
2022-09-12T06:40:58.533Z,99.02
2022-09-12T06:45:58.438Z,99.11
2022-09-12T06:50:58.371Z,98.71
2022-09-12T06:55:58.303Z,98.77
2022-09-12T07:00:59.562Z,98.86
2022-09-12T07:05:58.419Z,98.56
2022-09-12T07:10:58.089Z,98.66
2022-09-12T07:15:58.002Z,98.16
2022-09-12T07:20:57.954Z,99.07
2022-09-12T07:25:57.916Z,98.52
2022-09-12T07:30:57.993Z,97.05
2022-09-12T07:35:57.784Z,96.84
2022-09-12T07:40:57.679Z,95.79
2022-09-12T07:45:57.650Z,94.22
2022-09-12T07:50:57.551Z,94.42
2022-09-12T07:55:57.487Z,92.91
2022-09-12T08:00:57.420Z,93.42
2022-09-12T08:05:57.352Z,93.68
2022-09-12T08:10:57.309Z,90.60
2022-09-12T08:15:57.253Z,90.80
2022-09-12T08:20:57.173Z,92.31
2022-09-12T08:25:57.101Z,93.88
2022-09-12T08:30:57.100Z,92.84
2022-09-12T08:35:57.002Z,87.52
2022-09-12T08:40:56.936Z,82.98
2022-09-12T08:45:56.883Z,78.22
2022-09-12T08:50:56.755Z,73.60
2022-09-12T08:55:56.685Z,69.23
2022-09-12T09:00:56.615Z,64.21
2022-09-12T09:05:56.557Z,66.80
2022-09-12T09:10:56.664Z,62.42
2022-09-12T09:15:56.437Z,61.78
2022-09-12T09:20:56.370Z,60.85
2022-09-12T09:25:56.304Z,59.83
2022-09-12T09:30:56.307Z,61.91
2022-09-12T09:35:56.157Z,61.07
2022-09-12T09:40:56.108Z,56.02
2022-09-12T09:45:56.068Z,54.13
2022-09-12T09:50:55.943Z,50.56
2022-09-12T09:55:55.904Z,52.68
2022-09-12T10:00:56.823Z,50.83
2022-09-12T10:05:55.772Z,49.13
2022-09-12T10:10:55.718Z,47.27
2022-09-12T10:15:55.738Z,48.25
2022-09-12T10:20:55.561Z,49.40
2022-09-12T10:25:55.518Z,50.31
2022-09-12T10:30:55.547Z,49.95
2022-09-12T10:35:55.403Z,49.31
2022-09-12T10:40:55.343Z,46.61
2022-09-12T10:45:55.285Z,48.63
2022-09-12T10:50:55.205Z,44.09
2022-09-12T10:55:55.132Z,47.27
2022-09-12T11:00:55.070Z,45.53
2022-09-12T11:05:55.016Z,42.29
2022-09-12T11:10:54.950Z,41.86
2022-09-12T11:15:54.943Z,41.52
2022-09-12T11:20:54.807Z,46.76
2022-09-12T11:25:54.788Z,42.00
2022-09-12T11:30:54.750Z,42.10
2022-09-12T11:35:55.661Z,40.84
2022-09-12T11:40:54.576Z,41.35
2022-09-12T11:45:54.593Z,40.39
2022-09-12T11:50:54.421Z,43.14
2022-09-12T11:55:54.376Z,41.14
2022-09-12T12:00:54.300Z,40.98
2022-09-12T12:05:54.270Z,40.98
2022-09-12T12:10:54.172Z,40.48
2022-09-12T12:15:54.157Z,41.96
2022-09-12T12:20:54.100Z,42.45
2022-09-12T12:25:54.057Z,41.83
2022-09-12T12:30:54.048Z,42.67
2022-09-12T12:35:53.896Z,41.29
2022-09-12T12:40:53.786Z,41.75
2022-09-12T12:45:53.783Z,41.24
2022-09-12T12:50:53.680Z,40.37
2022-09-12T12:55:53.683Z,41.67
2022-09-12T13:00:53.552Z,40.98
2022-09-12T13:05:53.461Z,41.83
2022-09-12T13:10:53.573Z,43.82
2022-09-12T13:15:53.645Z,46.51
2022-09-12T13:20:53.261Z,43.17
2022-09-12T13:25:53.240Z,44.90
2022-09-12T13:30:53.229Z,44.82
2022-09-12T13:35:53.242Z,46.42
2022-09-12T13:40:53.015Z,46.72
2022-09-12T13:45:52.991Z,45.65
2022-09-12T13:50:52.883Z,45.56
2022-09-12T13:55:52.827Z,44.37
2022-09-12T14:00:52.784Z,45.08
2022-09-12T14:05:52.700Z,45.97
2022-09-12T14:10:52.616Z,45.90
2022-09-12T14:15:52.754Z,46.00
2022-09-12T14:20:52.552Z,47.41
2022-09-12T14:25:52.456Z,46.79
2022-09-12T14:30:52.383Z,46.91
2022-09-12T14:35:52.312Z,47.50
2022-09-12T14:40:52.289Z,48.69
2022-09-12T14:45:52.218Z,46.24
2022-09-12T14:50:52.142Z,47.33
2022-09-12T14:55:52.035Z,48.02
2022-09-12T15:00:51.956Z,47.73
2022-09-12T15:05:51.879Z,47.53
2022-09-12T15:10:51.901Z,48.84
2022-09-12T15:15:51.856Z,49.02
2022-09-12T15:20:51.705Z,47.53
2022-09-12T15:25:51.644Z,48.52
2022-09-12T15:30:51.612Z,47.95
2022-09-12T15:35:51.576Z,48.47
2022-09-12T15:40:51.474Z,49.38
2022-09-12T15:45:51.411Z,49.29
2022-09-12T15:50:51.331Z,49.68
2022-09-12T15:55:51.268Z,49.51
2022-09-12T16:00:51.173Z,50.23
2022-09-12T16:05:51.208Z,50.95
2022-09-12T16:10:51.159Z,51.84
2022-09-12T16:15:50.979Z,53.53
2022-09-12T16:20:50.931Z,51.75
2022-09-12T16:25:50.862Z,52.64
2022-09-12T16:30:50.821Z,54.03
2022-09-12T16:35:50.719Z,53.76
2022-09-12T16:40:50.675Z,56.27
2022-09-12T16:45:50.590Z,56.30
2022-09-12T16:50:50.535Z,56.83
2022-09-12T16:55:50.472Z,58.03
2022-09-12T17:00:50.428Z,57.56
2022-09-12T17:05:50.313Z,57.39
2022-09-12T17:10:50.273Z,58.98
2022-09-12T17:15:50.253Z,59.11
2022-09-12T17:20:50.174Z,58.51
2022-09-12T17:25:50.053Z,58.54
2022-09-12T17:30:49.996Z,58.94
2022-09-12T17:35:49.921Z,58.67
2022-09-12T17:40:59.522Z,59.69
2022-09-12T17:45:50.822Z,60.29
2022-09-12T17:50:49.746Z,61.82
2022-09-12T17:55:54.158Z,61.85
2022-09-12T18:00:49.603Z,62.15
2022-09-12T18:05:49.549Z,63.98
2022-09-12T18:10:49.468Z,67.62
2022-09-12T18:15:49.421Z,62.51
2022-09-12T18:20:49.338Z,64.25
2022-09-12T18:25:49.306Z,63.45
2022-09-12T18:30:49.248Z,63.54
2022-09-12T18:35:49.195Z,63.75
2022-09-12T18:40:49.090Z,63.87
2022-09-12T18:45:49.028Z,65.88
2022-09-12T18:50:48.921Z,64.51
2022-09-12T18:55:48.882Z,65.31
2022-09-12T19:00:48.853Z,64.71
2022-09-12T19:05:48.740Z,65.74
2022-09-12T19:10:48.767Z,65.84
2022-09-12T19:15:48.671Z,65.14
2022-09-12T19:20:48.545Z,65.44
2022-09-12T19:25:48.513Z,65.67
2022-09-12T19:30:48.704Z,67.48
2022-09-12T19:35:48.385Z,67.82
2022-09-12T19:40:48.270Z,68.32
2022-09-12T19:45:48.276Z,69.02
2022-09-12T19:50:48.127Z,70.86
2022-09-12T19:55:48.079Z,73.98
2022-09-12T20:00:48.226Z,75.22
2022-09-12T20:05:48.095Z,74.75
2022-09-12T20:10:47.913Z,74.99
2022-09-12T20:15:47.885Z,76.20
2022-09-12T20:20:47.766Z,76.54
2022-09-12T20:25:47.701Z,75.93
2022-09-12T20:30:47.713Z,76.07
2022-09-12T20:35:47.545Z,76.97
2022-09-12T20:40:47.489Z,77.68
2022-09-12T20:45:47.419Z,78.02
2022-09-12T20:50:47.386Z,78.63
2022-09-12T20:55:47.315Z,78.12
2022-09-12T21:00:47.231Z,78.32
2022-09-12T21:05:47.158Z,76.71
2022-09-12T21:10:47.088Z,76.00
2022-09-12T21:15:47.056Z,75.60
2022-09-12T21:20:46.953Z,75.30
2022-09-12T21:25:52.479Z,76.61
2022-09-12T21:30:47.855Z,76.51
2022-09-12T21:35:46.806Z,76.14
2022-09-12T21:40:46.690Z,76.10
2022-09-12T21:45:46.615Z,77.42
2022-09-12T21:50:46.566Z,78.86
2022-09-12T21:55:46.508Z,77.35
2022-09-12T22:00:46.531Z,77.28
2022-09-12T22:05:46.374Z,77.69
2022-09-12T22:10:46.284Z,78.80
2022-09-12T22:15:46.310Z,80.41
2022-09-12T22:20:46.224Z,80.65
2022-09-12T22:25:46.101Z,81.67
2022-09-12T22:30:46.131Z,81.60
2022-09-12T22:35:45.965Z,80.90
2022-09-12T22:40:45.901Z,80.99
2022-09-12T22:45:45.878Z,82.61
2022-09-12T22:50:45.809Z,82.95
2022-09-12T22:55:45.695Z,84.00
2022-09-12T23:00:45.673Z,83.90
2022-09-12T23:05:45.553Z,83.50
2022-09-12T23:10:45.686Z,82.49
2022-09-12T23:15:45.440Z,82.28
2022-09-12T23:20:45.418Z,83.90
2022-09-12T23:25:45.306Z,82.42
2022-09-12T23:30:45.232Z,82.59
2022-09-12T23:35:45.166Z,82.02
2022-09-12T23:40:45.097Z,81.57
2022-09-12T23:45:45.077Z,81.88
2022-09-12T23:50:44.946Z,81.57
2022-09-12T23:55:44.888Z,82.99
